Hopewell, Alabama
Current Conditions -  °F | °C
As of 8:04 AM on Saturday 20 Dec 2014 (Local Time) from KBHM Reporting Station
Haze Haze  
Wind Chill: 37°   Ceiling: 3000
Heat Index: 41°   Visibility: 5mi
Dew Point: 38°   Wind: 6mph
Humidity: 89%   Direction: 350°N
Pressure: 30.24"   Gusts: NA
Location:  33.3984°N, 87.0224°W
Report Text: KBHM 201404Z 35005KT 5SM BR OVC030 05/03 A3024 RMK AO2 T00500033
Loading
Personal Weather Stations






























Interactive Weather Map New forecast layout! Learn more

10-Day Weather Forecast

Advertisements
Track Severe Weather on mobile